sensor_id;sensor_type;location;lat;lon;timestamp;P1;durP1;ratioP1;P2;durP2;ratioP2
57828;SDS011;43657;52.698;6.314;2023-06-24T00:00:29;20.92;;;19.33;;
57828;SDS011;43657;52.698;6.314;2023-06-24T00:02:55;21.63;;;19.83;;
57828;SDS011;43657;52.698;6.314;2023-06-24T00:05:23;21.65;;;19.85;;
57828;SDS011;43657;52.698;6.314;2023-06-24T00:07:48;22.67;;;20.77;;
57828;SDS011;43657;52.698;6.314;2023-06-24T00:10:14;21.73;;;19.92;;
57828;SDS011;43657;52.698;6.314;2023-06-24T00:12:40;19.75;;;18.15;;
57828;SDS011;43657;52.698;6.314;2023-06-24T00:15:07;20.35;;;18.75;;
57828;SDS011;43657;52.698;6.314;2023-06-24T00:17:34;20.00;;;18.52;;
57828;SDS011;43657;52.698;6.314;2023-06-24T00:20:00;22.02;;;20.00;;
57828;SDS011;43657;52.698;6.314;2023-06-24T00:22:29;21.42;;;19.55;;
57828;SDS011;43657;52.698;6.314;2023-06-24T00:24:54;20.45;;;18.75;;
57828;SDS011;43657;52.698;6.314;2023-06-24T00:27:21;21.10;;;19.20;;
57828;SDS011;43657;52.698;6.314;2023-06-24T00:29:47;22.92;;;20.85;;
57828;SDS011;43657;52.698;6.314;2023-06-24T00:32:12;21.77;;;19.88;;
57828;SDS011;43657;52.698;6.314;2023-06-24T00:34:38;21.35;;;19.50;;
57828;SDS011;43657;52.698;6.314;2023-06-24T00:37:08;20.50;;;18.90;;
57828;SDS011;43657;52.698;6.314;2023-06-24T00:39:34;20.30;;;18.63;;
57828;SDS011;43657;52.698;6.314;2023-06-24T00:42:00;20.30;;;18.67;;
57828;SDS011;43657;52.698;6.314;2023-06-24T00:44:25;19.80;;;18.27;;
57828;SDS011;43657;52.698;6.314;2023-06-24T00:46:51;20.77;;;19.17;;
57828;SDS011;43657;52.698;6.314;2023-06-24T00:49:17;19.95;;;18.38;;
57828;SDS011;43657;52.698;6.314;2023-06-24T00:51:42;19.58;;;18.02;;
57828;SDS011;43657;52.698;6.314;2023-06-24T00:54:12;20.42;;;18.83;;
57828;SDS011;43657;52.698;6.314;2023-06-24T00:56:38;19.30;;;17.80;;
57828;SDS011;43657;52.698;6.314;2023-06-24T00:59:04;20.67;;;18.95;;
57828;SDS011;43657;52.698;6.314;2023-06-24T01:01:32;20.52;;;18.83;;
57828;SDS011;43657;52.698;6.314;2023-06-24T01:04:00;19.73;;;18.02;;
57828;SDS011;43657;52.698;6.314;2023-06-24T01:06:27;19.60;;;17.90;;
57828;SDS011;43657;52.698;6.314;2023-06-24T01:08:55;18.25;;;16.75;;
57828;SDS011;43657;52.698;6.314;2023-06-24T01:11:22;19.83;;;18.25;;
57828;SDS011;43657;52.698;6.314;2023-06-24T01:13:49;20.58;;;18.90;;
57828;SDS011;43657;52.698;6.314;2023-06-24T01:16:18;20.35;;;18.75;;
57828;SDS011;43657;52.698;6.314;2023-06-24T01:18:56;20.50;;;18.73;;
57828;SDS011;43657;52.698;6.314;2023-06-24T01:24:13;22.08;;;20.27;;
57828;SDS011;43657;52.698;6.314;2023-06-24T01:35:19;21.52;;;19.75;;
57828;SDS011;43657;52.698;6.314;2023-06-24T01:37:49;21.30;;;19.67;;
57828;SDS011;43657;52.698;6.314;2023-06-24T01:40:21;22.08;;;20.17;;
57828;SDS011;43657;52.698;6.314;2023-06-24T01:42:52;22.08;;;20.25;;
57828;SDS011;43657;52.698;6.314;2023-06-24T01:45:22;23.08;;;21.17;;
57828;SDS011;43657;52.698;6.314;2023-06-24T01:47:51;21.13;;;19.42;;
57828;SDS011;43657;52.698;6.314;2023-06-24T01:50:25;21.45;;;19.73;;
57828;SDS011;43657;52.698;6.314;2023-06-24T01:52:52;24.63;;;22.33;;
57828;SDS011;43657;52.698;6.314;2023-06-24T01:55:20;24.35;;;22.42;;
57828;SDS011;43657;52.698;6.314;2023-06-24T01:57:46;22.83;;;21.02;;
57828;SDS011;43657;52.698;6.314;2023-06-24T02:00:14;21.52;;;19.83;;
57828;SDS011;43657;52.698;6.314;2023-06-24T02:02:41;22.13;;;20.15;;
57828;SDS011;43657;52.698;6.314;2023-06-24T02:05:08;22.38;;;20.40;;
57828;SDS011;43657;52.698;6.314;2023-06-24T02:07:35;22.65;;;20.65;;
57828;SDS011;43657;52.698;6.314;2023-06-24T02:10:01;22.40;;;20.60;;
57828;SDS011;43657;52.698;6.314;2023-06-24T02:12:28;22.52;;;20.63;;
57828;SDS011;43657;52.698;6.314;2023-06-24T02:14:55;21.85;;;20.05;;
57828;SDS011;43657;52.698;6.314;2023-06-24T02:17:23;20.88;;;19.08;;
57828;SDS011;43657;52.698;6.314;2023-06-24T02:19:50;21.15;;;19.45;;
57828;SDS011;43657;52.698;6.314;2023-06-24T02:22:17;22.05;;;20.25;;
57828;SDS011;43657;52.698;6.314;2023-06-24T02:24:44;21.80;;;20.08;;
57828;SDS011;43657;52.698;6.314;2023-06-24T02:27:11;22.48;;;20.58;;
57828;SDS011;43657;52.698;6.314;2023-06-24T02:29:37;21.83;;;20.13;;
57828;SDS011;43657;52.698;6.314;2023-06-24T02:32:05;21.80;;;20.08;;
57828;SDS011;43657;52.698;6.314;2023-06-24T02:34:31;21.52;;;19.70;;
57828;SDS011;43657;52.698;6.314;2023-06-24T02:36:57;23.20;;;21.10;;
57828;SDS011;43657;52.698;6.314;2023-06-24T02:39:22;25.58;;;23.17;;
57828;SDS011;43657;52.698;6.314;2023-06-24T02:41:48;21.75;;;19.85;;
57828;SDS011;43657;52.698;6.314;2023-06-24T02:44:14;25.75;;;23.45;;
57828;SDS011;43657;52.698;6.314;2023-06-24T02:46:41;25.95;;;23.65;;
57828;SDS011;43657;52.698;6.314;2023-06-24T02:49:08;26.90;;;24.40;;
57828;SDS011;43657;52.698;6.314;2023-06-24T02:51:38;29.88;;;26.90;;
57828;SDS011;43657;52.698;6.314;2023-06-24T02:54:04;28.80;;;26.42;;
57828;SDS011;43657;52.698;6.314;2023-06-24T02:56:31;27.23;;;24.92;;
57828;SDS011;43657;52.698;6.314;2023-06-24T02:58:57;28.85;;;26.35;;
57828;SDS011;43657;52.698;6.314;2023-06-24T03:01:23;30.75;;;27.98;;
57828;SDS011;43657;52.698;6.314;2023-06-24T03:03:55;30.10;;;27.50;;
57828;SDS011;43657;52.698;6.314;2023-06-24T03:06:22;30.75;;;28.10;;
57828;SDS011;43657;52.698;6.314;2023-06-24T03:08:49;31.85;;;29.20;;
57828;SDS011;43657;52.698;6.314;2023-06-24T03:11:15;34.75;;;31.23;;
57828;SDS011;43657;52.698;6.314;2023-06-24T03:13:41;32.22;;;29.35;;
57828;SDS011;43657;52.698;6.314;2023-06-24T03:16:08;32.42;;;29.60;;
57828;SDS011;43657;52.698;6.314;2023-06-24T03:18:37;33.30;;;30.33;;
57828;SDS011;43657;52.698;6.314;2023-06-24T03:21:06;34.47;;;31.30;;
57828;SDS011;43657;52.698;6.314;2023-06-24T03:23:32;32.30;;;29.50;;
57828;SDS011;43657;52.698;6.314;2023-06-24T03:25:58;31.27;;;28.50;;
57828;SDS011;43657;52.698;6.314;2023-06-24T03:28:24;33.88;;;31.00;;
57828;SDS011;43657;52.698;6.314;2023-06-24T03:30:49;34.10;;;31.13;;
57828;SDS011;43657;52.698;6.314;2023-06-24T03:33:15;31.63;;;28.92;;
57828;SDS011;43657;52.698;6.314;2023-06-24T03:35:42;35.00;;;31.80;;
57828;SDS011;43657;52.698;6.314;2023-06-24T03:38:08;32.78;;;29.77;;
57828;SDS011;43657;52.698;6.314;2023-06-24T03:40:34;34.03;;;30.92;;
57828;SDS011;43657;52.698;6.314;2023-06-24T03:42:59;30.17;;;27.50;;
57828;SDS011;43657;52.698;6.314;2023-06-24T03:45:25;32.47;;;29.67;;
57828;SDS011;43657;52.698;6.314;2023-06-24T03:47:50;35.72;;;32.45;;
57828;SDS011;43657;52.698;6.314;2023-06-24T03:50:16;34.63;;;31.25;;
57828;SDS011;43657;52.698;6.314;2023-06-24T03:52:42;31.75;;;29.02;;
57828;SDS011;43657;52.698;6.314;2023-06-24T03:55:09;34.50;;;31.20;;
57828;SDS011;43657;52.698;6.314;2023-06-24T03:57:35;36.38;;;32.75;;
57828;SDS011;43657;52.698;6.314;2023-06-24T04:00:02;36.80;;;33.22;;
57828;SDS011;43657;52.698;6.314;2023-06-24T04:02:37;36.33;;;32.95;;
57828;SDS011;43657;52.698;6.314;2023-06-24T04:05:03;35.80;;;32.65;;
57828;SDS011;43657;52.698;6.314;2023-06-24T04:07:31;41.60;;;37.33;;
57828;SDS011;43657;52.698;6.314;2023-06-24T04:09:57;40.28;;;36.65;;
57828;SDS011;43657;52.698;6.314;2023-06-24T04:12:23;36.97;;;33.72;;
57828;SDS011;43657;52.698;6.314;2023-06-24T04:14:49;36.30;;;33.00;;
57828;SDS011;43657;52.698;6.314;2023-06-24T04:17:14;34.67;;;31.60;;
57828;SDS011;43657;52.698;6.314;2023-06-24T04:19:40;35.45;;;32.40;;
57828;SDS011;43657;52.698;6.314;2023-06-24T04:22:07;32.45;;;29.65;;
57828;SDS011;43657;52.698;6.314;2023-06-24T04:24:33;39.38;;;35.58;;
57828;SDS011;43657;52.698;6.314;2023-06-24T04:26:58;37.20;;;33.60;;
57828;SDS011;43657;52.698;6.314;2023-06-24T04:29:24;36.22;;;33.03;;
57828;SDS011;43657;52.698;6.314;2023-06-24T04:31:49;31.90;;;29.33;;
57828;SDS011;43657;52.698;6.314;2023-06-24T04:34:15;34.13;;;31.13;;
57828;SDS011;43657;52.698;6.314;2023-06-24T04:36:40;32.03;;;29.33;;
57828;SDS011;43657;52.698;6.314;2023-06-24T04:39:06;31.38;;;28.77;;
57828;SDS011;43657;52.698;6.314;2023-06-24T04:41:32;29.10;;;26.50;;
57828;SDS011;43657;52.698;6.314;2023-06-24T04:43:58;28.83;;;26.33;;
57828;SDS011;43657;52.698;6.314;2023-06-24T04:46:24;27.88;;;25.55;;
57828;SDS011;43657;52.698;6.314;2023-06-24T04:48:49;26.83;;;24.58;;
57828;SDS011;43657;52.698;6.314;2023-06-24T04:51:15;25.33;;;23.23;;
57828;SDS011;43657;52.698;6.314;2023-06-24T04:53:40;25.88;;;23.75;;
57828;SDS011;43657;52.698;6.314;2023-06-24T04:56:06;24.85;;;22.77;;
57828;SDS011;43657;52.698;6.314;2023-06-24T04:58:32;24.95;;;22.75;;
57828;SDS011;43657;52.698;6.314;2023-06-24T05:00:57;24.10;;;22.10;;
57828;SDS011;43657;52.698;6.314;2023-06-24T05:03:23;23.92;;;22.00;;
57828;SDS011;43657;52.698;6.314;2023-06-24T05:05:49;23.70;;;21.80;;
57828;SDS011;43657;52.698;6.314;2023-06-24T05:08:15;23.42;;;21.33;;
57828;SDS011;43657;52.698;6.314;2023-06-24T05:10:40;23.13;;;21.33;;
57828;SDS011;43657;52.698;6.314;2023-06-24T05:13:06;22.70;;;20.75;;
57828;SDS011;43657;52.698;6.314;2023-06-24T05:15:31;22.10;;;20.30;;
57828;SDS011;43657;52.698;6.314;2023-06-24T05:17:57;22.92;;;21.02;;
57828;SDS011;43657;52.698;6.314;2023-06-24T05:20:23;22.48;;;20.48;;
57828;SDS011;43657;52.698;6.314;2023-06-24T05:22:48;21.05;;;19.30;;
57828;SDS011;43657;52.698;6.314;2023-06-24T05:25:14;21.63;;;19.90;;
57828;SDS011;43657;52.698;6.314;2023-06-24T05:27:39;20.92;;;19.23;;
57828;SDS011;43657;52.698;6.314;2023-06-24T05:30:05;20.23;;;18.58;;
57828;SDS011;43657;52.698;6.314;2023-06-24T05:32:31;20.30;;;18.73;;
57828;SDS011;43657;52.698;6.314;2023-06-24T05:34:57;19.85;;;18.30;;
57828;SDS011;43657;52.698;6.314;2023-06-24T05:37:22;20.20;;;18.60;;
57828;SDS011;43657;52.698;6.314;2023-06-24T05:39:48;19.50;;;17.90;;
57828;SDS011;43657;52.698;6.314;2023-06-24T05:42:14;19.23;;;17.73;;
57828;SDS011;43657;52.698;6.314;2023-06-24T05:44:39;19.27;;;17.77;;
57828;SDS011;43657;52.698;6.314;2023-06-24T05:47:05;19.05;;;17.45;;
57828;SDS011;43657;52.698;6.314;2023-06-24T05:49:30;18.80;;;17.30;;
57828;SDS011;43657;52.698;6.314;2023-06-24T05:51:56;18.77;;;17.27;;
57828;SDS011;43657;52.698;6.314;2023-06-24T05:54:22;19.70;;;18.13;;
57828;SDS011;43657;52.698;6.314;2023-06-24T05:56:48;18.73;;;17.33;;
57828;SDS011;43657;52.698;6.314;2023-06-24T05:59:14;18.55;;;17.15;;
57828;SDS011;43657;52.698;6.314;2023-06-24T06:01:39;19.08;;;17.40;;
57828;SDS011;43657;52.698;6.314;2023-06-24T06:04:05;19.15;;;17.55;;
57828;SDS011;43657;52.698;6.314;2023-06-24T06:06:31;18.45;;;16.95;;
57828;SDS011;43657;52.698;6.314;2023-06-24T06:08:57;19.92;;;18.42;;
57828;SDS011;43657;52.698;6.314;2023-06-24T06:11:22;19.77;;;18.35;;
57828;SDS011;43657;52.698;6.314;2023-06-24T06:13:48;20.80;;;19.20;;
57828;SDS011;43657;52.698;6.314;2023-06-24T06:16:14;20.27;;;18.60;;
57828;SDS011;43657;52.698;6.314;2023-06-24T06:18:39;20.60;;;18.90;;
57828;SDS011;43657;52.698;6.314;2023-06-24T06:21:05;21.00;;;19.23;;
57828;SDS011;43657;52.698;6.314;2023-06-24T06:23:30;20.67;;;19.02;;
57828;SDS011;43657;52.698;6.314;2023-06-24T06:25:56;21.83;;;19.85;;
57828;SDS011;43657;52.698;6.314;2023-06-24T06:28:22;20.27;;;18.65;;
57828;SDS011;43657;52.698;6.314;2023-06-24T06:30:47;19.65;;;18.05;;
57828;SDS011;43657;52.698;6.314;2023-06-24T06:33:13;19.48;;;17.98;;
57828;SDS011;43657;52.698;6.314;2023-06-24T06:35:38;21.00;;;19.10;;
57828;SDS011;43657;52.698;6.314;2023-06-24T06:38:04;20.38;;;18.52;;
57828;SDS011;43657;52.698;6.314;2023-06-24T06:40:30;20.35;;;18.63;;
57828;SDS011;43657;52.698;6.314;2023-06-24T06:42:56;18.70;;;16.95;;
57828;SDS011;43657;52.698;6.314;2023-06-24T06:45:21;18.10;;;16.60;;
57828;SDS011;43657;52.698;6.314;2023-06-24T06:47:48;17.38;;;15.93;;
57828;SDS011;43657;52.698;6.314;2023-06-24T06:50:15;15.77;;;14.48;;
57828;SDS011;43657;52.698;6.314;2023-06-24T06:52:40;15.73;;;14.32;;
57828;SDS011;43657;52.698;6.314;2023-06-24T06:55:06;15.90;;;14.50;;
57828;SDS011;43657;52.698;6.314;2023-06-24T06:57:32;16.17;;;14.75;;
57828;SDS011;43657;52.698;6.314;2023-06-24T06:59:57;16.73;;;15.23;;
57828;SDS011;43657;52.698;6.314;2023-06-24T07:02:23;15.32;;;14.07;;
57828;SDS011;43657;52.698;6.314;2023-06-24T07:04:48;15.75;;;14.45;;
57828;SDS011;43657;52.698;6.314;2023-06-24T07:07:16;15.90;;;14.40;;
57828;SDS011;43657;52.698;6.314;2023-06-24T07:09:41;16.05;;;14.68;;
57828;SDS011;43657;52.698;6.314;2023-06-24T07:12:07;16.65;;;15.18;;
57828;SDS011;43657;52.698;6.314;2023-06-24T07:14:33;16.05;;;14.52;;
57828;SDS011;43657;52.698;6.314;2023-06-24T07:16:59;16.73;;;15.25;;
57828;SDS011;43657;52.698;6.314;2023-06-24T07:19:25;15.93;;;14.25;;
57828;SDS011;43657;52.698;6.314;2023-06-24T07:21:51;15.25;;;13.95;;
57828;SDS011;43657;52.698;6.314;2023-06-24T07:24:18;14.93;;;13.57;;
57828;SDS011;43657;52.698;6.314;2023-06-24T07:26:44;15.70;;;14.35;;
57828;SDS011;43657;52.698;6.314;2023-06-24T07:29:09;14.63;;;13.35;;
57828;SDS011;43657;52.698;6.314;2023-06-24T07:31:35;15.68;;;14.38;;
57828;SDS011;43657;52.698;6.314;2023-06-24T07:34:01;14.68;;;13.48;;
57828;SDS011;43657;52.698;6.314;2023-06-24T07:36:27;13.80;;;12.60;;
57828;SDS011;43657;52.698;6.314;2023-06-24T07:38:53;13.63;;;12.38;;
57828;SDS011;43657;52.698;6.314;2023-06-24T07:41:18;11.88;;;10.93;;
57828;SDS011;43657;52.698;6.314;2023-06-24T07:43:44;11.50;;;10.48;;
57828;SDS011;43657;52.698;6.314;2023-06-24T07:46:09;12.55;;;11.30;;
57828;SDS011;43657;52.698;6.314;2023-06-24T07:48:35;12.57;;;11.48;;
57828;SDS011;43657;52.698;6.314;2023-06-24T07:51:01;12.38;;;11.38;;
57828;SDS011;43657;52.698;6.314;2023-06-24T07:53:26;11.50;;;10.43;;
57828;SDS011;43657;52.698;6.314;2023-06-24T07:55:52;11.25;;;9.93;;
57828;SDS011;43657;52.698;6.314;2023-06-24T07:58:18;10.82;;;9.75;;
57828;SDS011;43657;52.698;6.314;2023-06-24T08:00:44;9.77;;;8.95;;
57828;SDS011;43657;52.698;6.314;2023-06-24T08:03:11;8.48;;;7.57;;
57828;SDS011;43657;52.698;6.314;2023-06-24T08:05:37;10.00;;;8.95;;
57828;SDS011;43657;52.698;6.314;2023-06-24T08:08:04;9.30;;;8.13;;
57828;SDS011;43657;52.698;6.314;2023-06-24T08:10:30;6.80;;;6.13;;
57828;SDS011;43657;52.698;6.314;2023-06-24T08:12:56;7.20;;;6.60;;
57828;SDS011;43657;52.698;6.314;2023-06-24T08:15:21;8.20;;;6.30;;
57828;SDS011;43657;52.698;6.314;2023-06-24T08:17:51;6.43;;;5.80;;
57828;SDS011;43657;52.698;6.314;2023-06-24T08:20:17;7.07;;;5.53;;
57828;SDS011;43657;52.698;6.314;2023-06-24T08:22:43;6.25;;;5.65;;
57828;SDS011;43657;52.698;6.314;2023-06-24T08:25:08;5.93;;;5.10;;
57828;SDS011;43657;52.698;6.314;2023-06-24T08:27:34;6.63;;;4.88;;
57828;SDS011;43657;52.698;6.314;2023-06-24T08:30:00;6.43;;;5.10;;
57828;SDS011;43657;52.698;6.314;2023-06-24T08:32:26;5.10;;;4.60;;
57828;SDS011;43657;52.698;6.314;2023-06-24T08:34:51;5.18;;;4.68;;
57828;SDS011;43657;52.698;6.314;2023-06-24T08:37:17;5.72;;;3.90;;
57828;SDS011;43657;52.698;6.314;2023-06-24T08:39:42;4.28;;;3.80;;
57828;SDS011;43657;52.698;6.314;2023-06-24T08:42:08;5.40;;;3.60;;
57828;SDS011;43657;52.698;6.314;2023-06-24T08:44:33;4.63;;;4.03;;
57828;SDS011;43657;52.698;6.314;2023-06-24T08:46:59;5.55;;;3.75;;
57828;SDS011;43657;52.698;6.314;2023-06-24T08:49:31;3.22;;;2.92;;
57828;SDS011;43657;52.698;6.314;2023-06-24T08:54:27;4.05;;;3.33;;
57828;SDS011;43657;52.698;6.314;2023-06-24T08:56:54;3.35;;;3.05;;
57828;SDS011;43657;52.698;6.314;2023-06-24T08:59:20;4.50;;;3.00;;
57828;SDS011;43657;52.698;6.314;2023-06-24T09:01:46;3.03;;;2.50;;
57828;SDS011;43657;52.698;6.314;2023-06-24T09:04:12;3.30;;;2.90;;
57828;SDS011;43657;52.698;6.314;2023-06-24T09:06:38;4.97;;;3.05;;
57828;SDS011;43657;52.698;6.314;2023-06-24T09:09:03;5.03;;;3.30;;
57828;SDS011;43657;52.698;6.314;2023-06-24T09:11:30;4.80;;;3.22;;
57828;SDS011;43657;52.698;6.314;2023-06-24T09:14:00;3.45;;;2.60;;
57828;SDS011;43657;52.698;6.314;2023-06-24T09:16:26;3.70;;;2.45;;
57828;SDS011;43657;52.698;6.314;2023-06-24T09:18:52;2.97;;;2.55;;
57828;SDS011;43657;52.698;6.314;2023-06-24T09:21:25;3.78;;;3.03;;
57828;SDS011;43657;52.698;6.314;2023-06-24T09:23:54;3.70;;;3.20;;
57828;SDS011;43657;52.698;6.314;2023-06-24T09:26:26;4.50;;;3.00;;
57828;SDS011;43657;52.698;6.314;2023-06-24T09:28:52;3.75;;;3.13;;
57828;SDS011;43657;52.698;6.314;2023-06-24T09:31:19;14.45;;;3.80;;
57828;SDS011;43657;52.698;6.314;2023-06-24T09:33:45;2.88;;;2.60;;
57828;SDS011;43657;52.698;6.314;2023-06-24T09:36:12;25.70;;;4.53;;
57828;SDS011;43657;52.698;6.314;2023-06-24T09:38:40;32.70;;;6.30;;
57828;SDS011;43657;52.698;6.314;2023-06-24T09:41:08;7.68;;;4.70;;
57828;SDS011;43657;52.698;6.314;2023-06-24T09:43:34;4.40;;;4.00;;
57828;SDS011;43657;52.698;6.314;2023-06-24T09:46:05;4.65;;;4.00;;
57828;SDS011;43657;52.698;6.314;2023-06-24T09:48:34;4.55;;;4.10;;
57828;SDS011;43657;52.698;6.314;2023-06-24T09:51:01;5.00;;;4.18;;
57828;SDS011;43657;52.698;6.314;2023-06-24T09:53:32;5.97;;;4.32;;
57828;SDS011;43657;52.698;6.314;2023-06-24T09:55:59;5.70;;;4.38;;
57828;SDS011;43657;52.698;6.314;2023-06-24T09:58:28;4.93;;;4.43;;
57828;SDS011;43657;52.698;6.314;2023-06-24T10:01:01;5.85;;;4.47;;
57828;SDS011;43657;52.698;6.314;2023-06-24T10:03:29;7.07;;;5.03;;
57828;SDS011;43657;52.698;6.314;2023-06-24T10:05:57;5.78;;;5.07;;
57828;SDS011;43657;52.698;6.314;2023-06-24T10:08:24;5.57;;;5.07;;
57828;SDS011;43657;52.698;6.314;2023-06-24T10:10:49;6.50;;;5.90;;
57828;SDS011;43657;52.698;6.314;2023-06-24T10:13:15;5.93;;;5.43;;
57828;SDS011;43657;52.698;6.314;2023-06-24T10:15:41;6.93;;;5.72;;
57828;SDS011;43657;52.698;6.314;2023-06-24T10:21:02;7.60;;;5.53;;
57828;SDS011;43657;52.698;6.314;2023-06-24T10:26:08;5.63;;;5.00;;
57828;SDS011;43657;52.698;6.314;2023-06-24T10:39:35;5.88;;;4.57;;
57828;SDS011;43657;52.698;6.314;2023-06-24T10:44:48;5.80;;;4.85;;
57828;SDS011;43657;52.698;6.314;2023-06-24T10:47:14;4.75;;;4.18;;
57828;SDS011;43657;52.698;6.314;2023-06-24T10:49:40;5.00;;;4.50;;
57828;SDS011;43657;52.698;6.314;2023-06-24T10:52:09;5.60;;;4.13;;
57828;SDS011;43657;52.698;6.314;2023-06-24T10:54:36;5.28;;;4.07;;
57828;SDS011;43657;52.698;6.314;2023-06-24T10:57:05;8.60;;;4.85;;
57828;SDS011;43657;52.698;6.314;2023-06-24T10:59:42;5.80;;;4.50;;
57828;SDS011;43657;52.698;6.314;2023-06-24T11:02:14;4.75;;;4.25;;
57828;SDS011;43657;52.698;6.314;2023-06-24T11:04:50;5.65;;;4.68;;
57828;SDS011;43657;52.698;6.314;2023-06-24T11:07:27;5.55;;;4.45;;
57828;SDS011;43657;52.698;6.314;2023-06-24T11:09:55;5.40;;;4.90;;
57828;SDS011;43657;52.698;6.314;2023-06-24T11:12:23;5.50;;;5.00;;
57828;SDS011;43657;52.698;6.314;2023-06-24T11:14:50;5.30;;;4.78;;
57828;SDS011;43657;52.698;6.314;2023-06-24T11:17:20;5.10;;;3.95;;
57828;SDS011;43657;52.698;6.314;2023-06-24T11:19:46;3.50;;;3.20;;
57828;SDS011;43657;52.698;6.314;2023-06-24T11:22:11;4.05;;;3.63;;
57828;SDS011;43657;52.698;6.314;2023-06-24T11:24:37;4.18;;;3.72;;
57828;SDS011;43657;52.698;6.314;2023-06-24T11:27:04;5.05;;;3.58;;
57828;SDS011;43657;52.698;6.314;2023-06-24T11:29:30;3.47;;;3.17;;
57828;SDS011;43657;52.698;6.314;2023-06-24T11:31:57;4.95;;;3.88;;
57828;SDS011;43657;52.698;6.314;2023-06-24T11:34:23;4.80;;;3.45;;
57828;SDS011;43657;52.698;6.314;2023-06-24T11:36:49;4.93;;;3.40;;
57828;SDS011;43657;52.698;6.314;2023-06-24T11:39:24;5.03;;;3.55;;
57828;SDS011;43657;52.698;6.314;2023-06-24T11:41:52;3.30;;;3.00;;
57828;SDS011;43657;52.698;6.314;2023-06-24T11:44:19;3.60;;;3.03;;
57828;SDS011;43657;52.698;6.314;2023-06-24T11:46:46;4.50;;;3.22;;
57828;SDS011;43657;52.698;6.314;2023-06-24T11:49:12;4.50;;;4.10;;
57828;SDS011;43657;52.698;6.314;2023-06-24T11:51:45;4.32;;;3.67;;
57828;SDS011;43657;52.698;6.314;2023-06-24T11:54:14;4.28;;;3.75;;
57828;SDS011;43657;52.698;6.314;2023-06-24T11:56:41;5.80;;;4.10;;
57828;SDS011;43657;52.698;6.314;2023-06-24T11:59:15;4.63;;;4.05;;
57828;SDS011;43657;52.698;6.314;2023-06-24T12:01:45;6.60;;;3.85;;
57828;SDS011;43657;52.698;6.314;2023-06-24T12:06:42;5.00;;;3.97;;
57828;SDS011;43657;52.698;6.314;2023-06-24T12:09:09;5.03;;;3.70;;
57828;SDS011;43657;52.698;6.314;2023-06-24T12:11:35;4.15;;;3.00;;
57828;SDS011;43657;52.698;6.314;2023-06-24T12:14:01;5.28;;;3.30;;
57828;SDS011;43657;52.698;6.314;2023-06-24T12:16:27;7.82;;;3.95;;
57828;SDS011;43657;52.698;6.314;2023-06-24T12:18:54;5.28;;;4.78;;
57828;SDS011;43657;52.698;6.314;2023-06-24T12:21:19;35.60;;;5.53;;
57828;SDS011;43657;52.698;6.314;2023-06-24T12:23:45;8.07;;;4.50;;
57828;SDS011;43657;52.698;6.314;2023-06-24T12:26:11;5.60;;;3.70;;
57828;SDS011;43657;52.698;6.314;2023-06-24T12:28:37;6.28;;;3.95;;
57828;SDS011;43657;52.698;6.314;2023-06-24T12:31:02;6.65;;;4.65;;
57828;SDS011;43657;52.698;6.314;2023-06-24T12:33:28;5.82;;;4.40;;
57828;SDS011;43657;52.698;6.314;2023-06-24T12:35:54;4.72;;;4.22;;
57828;SDS011;43657;52.698;6.314;2023-06-24T12:38:20;7.05;;;4.30;;
57828;SDS011;43657;52.698;6.314;2023-06-24T12:40:46;7.32;;;4.40;;
57828;SDS011;43657;52.698;6.314;2023-06-24T12:43:13;8.20;;;4.60;;
57828;SDS011;43657;52.698;6.314;2023-06-24T12:45:39;7.47;;;4.65;;
57828;SDS011;43657;52.698;6.314;2023-06-24T12:48:08;6.07;;;4.20;;
57828;SDS011;43657;52.698;6.314;2023-06-24T12:50:38;5.35;;;4.57;;
57828;SDS011;43657;52.698;6.314;2023-06-24T12:53:04;7.20;;;4.82;;
57828;SDS011;43657;52.698;6.314;2023-06-24T12:55:30;18.25;;;5.30;;
57828;SDS011;43657;52.698;6.314;2023-06-24T12:57:56;4.35;;;3.95;;
57828;SDS011;43657;52.698;6.314;2023-06-24T13:00:22;5.25;;;4.40;;
57828;SDS011;43657;52.698;6.314;2023-06-24T13:02:49;5.15;;;4.22;;
57828;SDS011;43657;52.698;6.314;2023-06-24T13:05:15;5.47;;;4.97;;
57828;SDS011;43657;52.698;6.314;2023-06-24T13:07:41;5.53;;;3.90;;
57828;SDS011;43657;52.698;6.314;2023-06-24T13:10:07;6.57;;;4.40;;
57828;SDS011;43657;52.698;6.314;2023-06-24T13:12:33;4.30;;;3.90;;
57828;SDS011;43657;52.698;6.314;2023-06-24T13:15:00;5.72;;;3.97;;
57828;SDS011;43657;52.698;6.314;2023-06-24T13:17:26;5.05;;;3.90;;
57828;SDS011;43657;52.698;6.314;2023-06-24T13:19:51;5.43;;;4.13;;
57828;SDS011;43657;52.698;6.314;2023-06-24T13:22:17;6.35;;;3.72;;
57828;SDS011;43657;52.698;6.314;2023-06-24T13:24:43;6.32;;;3.70;;
57828;SDS011;43657;52.698;6.314;2023-06-24T13:27:09;16.05;;;4.68;;
57828;SDS011;43657;52.698;6.314;2023-06-24T13:29:35;5.25;;;3.70;;
57828;SDS011;43657;52.698;6.314;2023-06-24T13:32:01;4.47;;;3.85;;
57828;SDS011;43657;52.698;6.314;2023-06-24T13:34:27;4.30;;;3.90;;
57828;SDS011;43657;52.698;6.314;2023-06-24T13:36:53;4.82;;;4.05;;
57828;SDS011;43657;52.698;6.314;2023-06-24T13:39:19;3.70;;;3.40;;
57828;SDS011;43657;52.698;6.314;2023-06-24T13:41:47;5.10;;;3.42;;
57828;SDS011;43657;52.698;6.314;2023-06-24T13:44:13;4.53;;;3.40;;
57828;SDS011;43657;52.698;6.314;2023-06-24T13:46:39;4.28;;;3.50;;
57828;SDS011;43657;52.698;6.314;2023-06-24T13:49:04;4.07;;;3.40;;
57828;SDS011;43657;52.698;6.314;2023-06-24T13:51:30;4.65;;;3.60;;
57828;SDS011;43657;52.698;6.314;2023-06-24T13:53:56;4.82;;;3.70;;
57828;SDS011;43657;52.698;6.314;2023-06-24T13:56:22;3.85;;;3.30;;
57828;SDS011;43657;52.698;6.314;2023-06-24T13:58:49;5.03;;;3.45;;
57828;SDS011;43657;52.698;6.314;2023-06-24T14:01:15;3.58;;;3.25;;
57828;SDS011;43657;52.698;6.314;2023-06-24T14:03:41;3.55;;;3.25;;
57828;SDS011;43657;52.698;6.314;2023-06-24T14:06:07;3.67;;;3.38;;
57828;SDS011;43657;52.698;6.314;2023-06-24T14:08:33;3.40;;;3.10;;
57828;SDS011;43657;52.698;6.314;2023-06-24T14:10:59;3.50;;;3.05;;
57828;SDS011;43657;52.698;6.314;2023-06-24T14:13:26;3.65;;;3.20;;
57828;SDS011;43657;52.698;6.314;2023-06-24T14:15:52;3.80;;;3.20;;
57828;SDS011;43657;52.698;6.314;2023-06-24T14:18:18;3.83;;;2.85;;
57828;SDS011;43657;52.698;6.314;2023-06-24T14:20:44;4.95;;;3.50;;
57828;SDS011;43657;52.698;6.314;2023-06-24T14:23:10;4.35;;;3.60;;
57828;SDS011;43657;52.698;6.314;2023-06-24T14:25:35;3.90;;;3.50;;
57828;SDS011;43657;52.698;6.314;2023-06-24T14:28:02;4.05;;;3.60;;
57828;SDS011;43657;52.698;6.314;2023-06-24T14:30:32;3.45;;;3.00;;
57828;SDS011;43657;52.698;6.314;2023-06-24T14:32:58;4.22;;;3.20;;
57828;SDS011;43657;52.698;6.314;2023-06-24T14:35:24;13.52;;;3.72;;
57828;SDS011;43657;52.698;6.314;2023-06-24T14:37:50;3.40;;;3.10;;
57828;SDS011;43657;52.698;6.314;2023-06-24T14:40:16;3.58;;;3.28;;
57828;SDS011;43657;52.698;6.314;2023-06-24T14:42:41;4.05;;;3.40;;
57828;SDS011;43657;52.698;6.314;2023-06-24T14:45:07;3.45;;;3.10;;
57828;SDS011;43657;52.698;6.314;2023-06-24T14:47:33;3.83;;;3.38;;
57828;SDS011;43657;52.698;6.314;2023-06-24T14:49:59;3.47;;;3.17;;
57828;SDS011;43657;52.698;6.314;2023-06-24T14:52:24;3.85;;;3.20;;
57828;SDS011;43657;52.698;6.314;2023-06-24T14:54:50;5.53;;;3.42;;
57828;SDS011;43657;52.698;6.314;2023-06-24T14:57:15;4.50;;;3.10;;
57828;SDS011;43657;52.698;6.314;2023-06-24T14:59:41;4.53;;;3.40;;
57828;SDS011;43657;52.698;6.314;2023-06-24T15:02:07;4.68;;;3.30;;
57828;SDS011;43657;52.698;6.314;2023-06-24T15:04:32;3.97;;;3.58;;